Terminal Aerodrome Forecast
Issued by NWS Buffalo, NY

Home | Current Version | Previous Version | Text Only | Print | Product List | Glossary On
Versions: 1 2 3 4 5 6 7 8 9 10 11 12 13 14 15 16 17 18 19 20 21 22 23 24
980
FTUS41 KBUF 241126
TAFBUF
TAF
KBUF 241126Z 2412/2512 21009KT P6SM BKN025
     FM241300 21011G17KT P6SM SCT200
     FM241500 22013G25KT P6SM FEW250
     FM250900 22018G24KT P6SM OVC035=

USA.gov is the U.S. government's official web portal to all federal, state and local government web resources and services.